Terminal Aerodrome Forecast
Issued by NWS

Home | Current Version | Previous Version | Text Only | Print | Product List | Glossary On
Versions: 1 2 3 4 5 6 7 8 9 10 11 12 13 14 15 16 17 18 19
000
FTUS41 KBTV 261130 CCA
TAFMPV
TAF COR
KMPV 261130Z 2612/2712 26008KT P6SM OVC040
      TEMPO 2612/2615 29010G18KT
     FM262100 25005KT P6SM BKN050
     FM270400 27003KT P6SM OVC035=

USA.gov is the U.S. government's official web portal to all federal, state and local government web resources and services.